createdAt,value
2022-10-11T00:03:08.573Z,13
2022-10-11T00:32:20.411Z,13
2022-10-11T01:01:24.094Z,14
2022-10-11T01:30:29.687Z,13
2022-10-11T01:59:41.197Z,13
2022-10-11T02:28:52.809Z,14
2022-10-11T02:57:54.377Z,13
2022-10-11T03:27:03.988Z,14
2022-10-11T03:56:17.528Z,16
2022-10-11T04:25:27.931Z,13
2022-10-11T04:54:31.721Z,18
2022-10-11T05:23:38.953Z,21
2022-10-11T05:52:45.648Z,24
2022-10-11T06:21:52.273Z,34
2022-10-11T06:51:00.849Z,41
2022-10-11T07:19:41.312Z,46
2022-10-11T07:48:54.187Z,44
2022-10-11T08:18:06.943Z,38
2022-10-11T08:47:14.406Z,25
2022-10-11T09:16:22.648Z,17
2022-10-11T09:45:33.133Z,16
2022-10-11T10:14:48.714Z,17
2022-10-11T10:44:03.914Z,14
2022-10-11T11:13:16.389Z,13
2022-10-11T11:42:25.548Z,14
2022-10-11T12:11:40.661Z,13
2022-10-11T12:40:52.381Z,15
2022-10-11T13:10:04.435Z,14
2022-10-11T13:39:17.149Z,16
2022-10-11T14:08:26.111Z,17
2022-10-11T14:37:38.384Z,16
2022-10-11T15:06:46.646Z,16
2022-10-11T15:35:53.411Z,18
2022-10-11T16:04:54.294Z,18
2022-10-11T16:34:03.201Z,19
2022-10-11T17:03:08.957Z,20
2022-10-11T17:32:17.467Z,19
2022-10-11T18:01:19.784Z,21
2022-10-11T18:30:09.410Z,21
2022-10-11T18:59:07.652Z,17
2022-10-11T19:28:05.547Z,11
2022-10-11T19:57:10.568Z,9
2022-10-11T20:26:15.765Z,11
2022-10-11T20:55:09.046Z,8
2022-10-11T21:24:00.707Z,11
2022-10-11T21:53:06.194Z,8
2022-10-11T22:22:05.985Z,11
2022-10-11T22:51:08.769Z,8
2022-10-11T23:20:04.520Z,11
2022-10-11T23:49:06.465Z,13
